createdAt,value
2018-06-11T00:00:38.186Z,1012.9
2018-06-11T00:01:38.230Z,1012.85
2018-06-11T00:02:38.206Z,1012.92
2018-06-11T00:03:38.191Z,1012.84
2018-06-11T00:04:38.320Z,1012.95
2018-06-11T00:05:38.191Z,1012.92
2018-06-11T00:06:38.540Z,1012.96
2018-06-11T00:07:38.205Z,1013
2018-06-11T00:08:38.181Z,1013.04
2018-06-11T00:09:38.307Z,1013.04
2018-06-11T00:10:38.219Z,1013.06
2018-06-11T00:11:38.239Z,1013.07
2018-06-11T00:12:38.195Z,1013.09
2018-06-11T00:13:38.223Z,1013.04
2018-06-11T00:14:38.189Z,1012.98
2018-06-11T00:15:38.297Z,1013.02
2018-06-11T00:16:38.267Z,1013
2018-06-11T00:17:38.214Z,1013
2018-06-11T00:18:38.180Z,1012.98
2018-06-11T00:19:38.229Z,1012.96
2018-06-11T00:20:38.194Z,1012.92
2018-06-11T00:21:38.183Z,1012.97
2018-06-11T00:22:38.192Z,1012.97
2018-06-11T00:23:38.217Z,1012.92
2018-06-11T00:24:38.186Z,1012.89
2018-06-11T00:25:38.195Z,1012.88
2018-06-11T00:26:38.177Z,1012.86
2018-06-11T00:27:38.184Z,1012.78
2018-06-11T00:28:38.189Z,1012.8
2018-06-11T00:29:38.376Z,1012.75
2018-06-11T00:30:38.182Z,1012.74
2018-06-11T00:31:38.192Z,1012.71
2018-06-11T00:32:38.174Z,1012.75
2018-06-11T00:33:39.287Z,1012.73
2018-06-11T00:34:38.168Z,1012.72
2018-06-11T00:35:40.978Z,1012.74
2018-06-11T00:36:38.178Z,1012.72
2018-06-11T00:37:38.179Z,1012.71
2018-06-11T00:38:38.191Z,1012.65
2018-06-11T00:39:38.179Z,1012.69
2018-06-11T00:40:38.928Z,1012.68
2018-06-11T00:41:38.181Z,1012.63
2018-06-11T00:42:38.180Z,1012.6
2018-06-11T00:43:38.233Z,1012.57
2018-06-11T00:44:38.343Z,1012.56
2018-06-11T00:45:38.312Z,1012.46
2018-06-11T00:46:38.792Z,1012.51
2018-06-11T00:47:40.132Z,1012.43
2018-06-11T00:48:38.832Z,1012.42
2018-06-11T00:49:38.277Z,1012.44
2018-06-11T00:50:38.187Z,1012.43
2018-06-11T00:51:38.811Z,1012.49
2018-06-11T00:52:38.252Z,1012.49
2018-06-11T00:53:38.210Z,1012.48
2018-06-11T00:54:38.259Z,1012.5
2018-06-11T00:55:38.179Z,1012.54
2018-06-11T00:56:38.170Z,1012.54
2018-06-11T00:57:38.344Z,1012.52
2018-06-11T00:58:38.974Z,1012.57
2018-06-11T00:59:38.240Z,1012.58
2018-06-11T01:00:38.196Z,1012.57
2018-06-11T01:01:38.165Z,1012.6
2018-06-11T01:02:38.166Z,1012.58
2018-06-11T01:03:38.253Z,1012.59
2018-06-11T01:04:38.471Z,1012.58
2018-06-11T01:05:38.340Z,1012.6
2018-06-11T01:06:38.178Z,1012.61
2018-06-11T01:07:38.195Z,1012.63
2018-06-11T01:08:38.191Z,1012.6
2018-06-11T01:09:38.232Z,1012.59
2018-06-11T01:10:38.183Z,1012.56
2018-06-11T01:11:38.194Z,1012.56
2018-06-11T01:12:38.192Z,1012.58
2018-06-11T01:13:38.174Z,1012.54
2018-06-11T01:14:38.163Z,1012.53
2018-06-11T01:15:38.178Z,1012.53
2018-06-11T01:16:38.195Z,1012.51
2018-06-11T01:17:38.195Z,1012.45
2018-06-11T01:18:38.218Z,1012.48
2018-06-11T01:19:38.215Z,1012.41
2018-06-11T01:20:38.180Z,1012.34
2018-06-11T01:21:38.178Z,1012.4
2018-06-11T01:22:38.225Z,1012.35
2018-06-11T01:23:38.176Z,1012.32
2018-06-11T01:24:38.241Z,1012.34
2018-06-11T01:25:38.177Z,1012.3
2018-06-11T01:26:38.195Z,1012.29
2018-06-11T01:27:38.199Z,1012.3
2018-06-11T01:28:38.211Z,1012.28
2018-06-11T01:29:38.212Z,1012.29
2018-06-11T01:30:38.224Z,1012.25
2018-06-11T01:31:38.266Z,1012.25
2018-06-11T01:32:38.207Z,1012.26
2018-06-11T01:33:38.182Z,1012.25
2018-06-11T01:34:38.189Z,1012.25
2018-06-11T01:35:38.173Z,1012.25
2018-06-11T01:36:38.180Z,1012.24
2018-06-11T01:37:38.159Z,1012.24
2018-06-11T01:38:38.167Z,1012.25
2018-06-11T01:39:38.163Z,1012.27
2018-06-11T01:40:38.152Z,1012.25
2018-06-11T01:41:38.169Z,1012.22
2018-06-11T01:42:38.186Z,1012.2
2018-06-11T01:43:38.174Z,1012.23
2018-06-11T01:44:38.190Z,1012.18
2018-06-11T01:45:38.193Z,1012.17
2018-06-11T01:46:38.180Z,1012.18
2018-06-11T01:47:38.162Z,1012.17
2018-06-11T01:48:40.750Z,1012.11
2018-06-11T01:49:43.591Z,1012.15
2018-06-11T01:50:41.200Z,1012.18
2018-06-11T01:51:42.115Z,1012.11
2018-06-11T01:52:39.470Z,1012.14
2018-06-11T01:53:41.641Z,1012.14
2018-06-11T01:54:38.971Z,1012.18
2018-06-11T01:55:41.071Z,1012.15
2018-06-11T01:56:49.286Z,1012.15
2018-06-11T01:57:47.151Z,1012.19
2018-06-11T01:58:38.918Z,1012.2
2018-06-11T01:59:38.389Z,1012.2
2018-06-11T02:00:38.250Z,1012.2
2018-06-11T02:01:38.166Z,1012.18
2018-06-11T02:02:38.186Z,1012.16
2018-06-11T02:03:38.191Z,1012.13
2018-06-11T02:04:38.160Z,1012.1
2018-06-11T02:05:38.181Z,1012.07
2018-06-11T02:06:38.156Z,1012.08
2018-06-11T02:07:38.210Z,1012.07
2018-06-11T02:08:38.143Z,1012.07
2018-06-11T02:09:38.202Z,1012.12
2018-06-11T02:10:38.145Z,1012.04
2018-06-11T02:11:38.200Z,1012.06
2018-06-11T02:12:38.334Z,1012.1
2018-06-11T02:13:38.215Z,1012.12
2018-06-11T02:14:38.176Z,1012.12
2018-06-11T02:15:38.192Z,1012.12
2018-06-11T02:16:38.164Z,1012.11
2018-06-11T02:17:38.190Z,1012.1
2018-06-11T02:18:38.155Z,1012.12
2018-06-11T02:19:38.259Z,1012.08
2018-06-11T02:20:38.181Z,1012.02
2018-06-11T02:21:38.258Z,1012.01
2018-06-11T02:22:38.280Z,1012.04
2018-06-11T02:23:38.265Z,1012.05
2018-06-11T02:24:38.235Z,1012.03
2018-06-11T02:25:38.206Z,1012.05
2018-06-11T02:26:38.315Z,1012.01
2018-06-11T02:27:38.236Z,1011.95
2018-06-11T02:28:38.331Z,1011.96
2018-06-11T02:29:38.304Z,1011.95
2018-06-11T02:30:38.198Z,1011.97
2018-06-11T02:31:38.155Z,1011.97
2018-06-11T02:32:38.148Z,1011.97
2018-06-11T02:33:38.591Z,1011.95
2018-06-11T02:34:38.162Z,1011.98
2018-06-11T02:35:38.160Z,1012
2018-06-11T02:36:38.168Z,1012.01
2018-06-11T02:37:38.154Z,1012.07
2018-06-11T02:38:38.185Z,1012.11
2018-06-11T02:39:38.177Z,1012.12
2018-06-11T02:40:38.219Z,1012.14
2018-06-11T02:41:38.154Z,1012.16
2018-06-11T02:42:38.147Z,1012.18
2018-06-11T02:43:38.166Z,1012.2
2018-06-11T02:44:38.152Z,1012.22
2018-06-11T02:45:38.148Z,1012.23
2018-06-11T02:46:38.154Z,1012.2
2018-06-11T02:47:38.158Z,1012.27
2018-06-11T02:48:38.170Z,1012.25
2018-06-11T02:49:38.155Z,1012.27
2018-06-11T02:50:38.140Z,1012.28
2018-06-11T02:51:38.129Z,1012.3
2018-06-11T02:52:38.164Z,1012.33
2018-06-11T02:53:38.142Z,1012.34
2018-06-11T02:54:38.142Z,1012.35
2018-06-11T02:55:38.172Z,1012.38
2018-06-11T02:56:38.145Z,1012.36
2018-06-11T02:57:38.139Z,1012.34
2018-06-11T02:58:38.197Z,1012.38
2018-06-11T02:59:38.156Z,1012.39
2018-06-11T03:00:38.168Z,1012.37
2018-06-11T03:01:38.138Z,1012.34
2018-06-11T03:02:38.149Z,1012.37
2018-06-11T03:03:38.199Z,1012.35
2018-06-11T03:04:38.145Z,1012.29
2018-06-11T03:05:38.153Z,1012.3
2018-06-11T03:06:38.129Z,1012.31
2018-06-11T03:07:38.212Z,1012.29
2018-06-11T03:08:38.184Z,1012.29
2018-06-11T03:09:38.122Z,1012.25
2018-06-11T03:10:38.218Z,1012.27
2018-06-11T03:11:38.177Z,1012.25
2018-06-11T03:12:38.145Z,1012.26
2018-06-11T03:13:38.136Z,1012.23
2018-06-11T03:14:38.326Z,1012.24
2018-06-11T03:15:38.317Z,1012.24
2018-06-11T03:16:38.143Z,1012.22
2018-06-11T03:17:38.223Z,1012.23
2018-06-11T03:18:38.128Z,1012.21
2018-06-11T03:19:38.136Z,1012.25
2018-06-11T03:20:38.128Z,1012.26
2018-06-11T03:21:38.141Z,1012.22
2018-06-11T03:22:38.421Z,1012.25
2018-06-11T03:23:38.173Z,1012.24
2018-06-11T03:24:38.192Z,1012.22
2018-06-11T03:25:38.299Z,1012.25
2018-06-11T03:26:38.166Z,1012.24
2018-06-11T03:27:38.133Z,1012.25
2018-06-11T03:28:39.212Z,1012.24
2018-06-11T03:29:38.148Z,1012.22
2018-06-11T03:30:38.269Z,1012.22
2018-06-11T03:31:38.157Z,1012.2
2018-06-11T03:32:38.142Z,1012.21
2018-06-11T03:33:38.388Z,1012.22
2018-06-11T03:34:38.120Z,1012.24
2018-06-11T03:35:38.255Z,1012.25
2018-06-11T03:36:38.192Z,1012.29
2018-06-11T03:37:38.120Z,1012.32
2018-06-11T03:38:38.125Z,1012.34
2018-06-11T03:39:38.108Z,1012.36
2018-06-11T03:40:38.128Z,1012.34
2018-06-11T03:41:38.136Z,1012.38
2018-06-11T03:42:38.316Z,1012.34
2018-06-11T03:43:38.189Z,1012.37
2018-06-11T03:44:38.163Z,1012.37
2018-06-11T03:45:38.134Z,1012.41
2018-06-11T03:46:38.139Z,1012.41
2018-06-11T03:47:38.374Z,1012.42
2018-06-11T03:48:38.201Z,1012.45
2018-06-11T03:49:38.112Z,1012.43
2018-06-11T03:50:38.161Z,1012.42
2018-06-11T03:51:38.308Z,1012.38
2018-06-11T03:52:38.199Z,1012.35
2018-06-11T03:53:38.174Z,1012.33
2018-06-11T03:54:38.224Z,1012.29
2018-06-11T03:55:38.134Z,1012.3
2018-06-11T03:56:38.134Z,1012.28
2018-06-11T03:57:38.140Z,1012.27
2018-06-11T03:58:38.118Z,1012.22
2018-06-11T03:59:38.131Z,1012.26
2018-06-11T04:00:38.108Z,1012.2
2018-06-11T04:01:38.114Z,1012.18
2018-06-11T04:02:38.182Z,1012.17
2018-06-11T04:03:38.120Z,1012.15
2018-06-11T04:04:38.124Z,1012.15
2018-06-11T04:05:38.138Z,1012.15
2018-06-11T04:06:38.119Z,1012.14
2018-06-11T04:07:38.163Z,1012.15
2018-06-11T04:08:38.185Z,1012.16
2018-06-11T04:09:38.130Z,1012.14
2018-06-11T04:10:38.275Z,1012.12
2018-06-11T04:11:38.127Z,1012.12
2018-06-11T04:12:38.135Z,1012.14
2018-06-11T04:13:38.116Z,1012.1
2018-06-11T04:14:38.124Z,1012.14
2018-06-11T04:15:38.150Z,1012.1
2018-06-11T04:16:38.143Z,1012.13
2018-06-11T04:17:38.122Z,1012.11
2018-06-11T04:18:38.114Z,1012.13
2018-06-11T04:19:38.302Z,1012.13
2018-06-11T04:20:38.195Z,1012.15
2018-06-11T04:21:38.214Z,1012.14
2018-06-11T04:22:38.323Z,1012.16
2018-06-11T04:23:38.166Z,1012.13
2018-06-11T04:24:38.129Z,1012.14
2018-06-11T04:25:38.140Z,1012.18
2018-06-11T04:26:38.111Z,1012.17
2018-06-11T04:27:38.147Z,1012.17
2018-06-11T04:28:38.150Z,1012.18
2018-06-11T04:29:38.166Z,1012.18
2018-06-11T04:30:38.305Z,1012.15
2018-06-11T04:31:38.114Z,1012.19
2018-06-11T04:32:38.120Z,1012.21
2018-06-11T04:33:38.185Z,1012.16
2018-06-11T04:34:38.123Z,1012.15
2018-06-11T04:35:38.318Z,1012.17
2018-06-11T04:36:38.110Z,1012.13
2018-06-11T04:37:38.316Z,1012.12
2018-06-11T04:38:38.175Z,1012.15
2018-06-11T04:39:38.170Z,1012.13
2018-06-11T04:40:38.266Z,1012.15
2018-06-11T04:41:38.152Z,1012.13
2018-06-11T04:42:38.142Z,1012.13
2018-06-11T04:43:38.458Z,1012.1
2018-06-11T04:44:38.103Z,1012.08
2018-06-11T04:45:38.094Z,1012.03
2018-06-11T04:46:38.151Z,1012.02
2018-06-11T04:47:38.110Z,1012.04
2018-06-11T04:48:38.222Z,1012
2018-06-11T04:49:38.279Z,1012.04
2018-06-11T04:50:38.174Z,1012.03
2018-06-11T04:51:38.119Z,1012.01
2018-06-11T04:52:38.115Z,1012.01
2018-06-11T04:53:38.109Z,1011.99
2018-06-11T04:54:38.270Z,1012.01
2018-06-11T04:55:38.119Z,1011.97
2018-06-11T04:56:38.103Z,1011.93
2018-06-11T04:57:38.099Z,1011.94
2018-06-11T04:58:38.127Z,1011.98
2018-06-11T04:59:38.115Z,1011.95
2018-06-11T05:00:38.121Z,1011.97
2018-06-11T05:01:38.320Z,1011.95
2018-06-11T05:02:38.096Z,1011.9
2018-06-11T05:03:38.102Z,1011.92
2018-06-11T05:04:38.130Z,1011.88
2018-06-11T05:05:38.129Z,1011.9
2018-06-11T05:06:38.126Z,1011.86
2018-06-11T05:07:38.119Z,1011.85
2018-06-11T05:08:38.093Z,1011.86
2018-06-11T05:09:38.437Z,1011.85
2018-06-11T05:10:38.104Z,1011.85
2018-06-11T05:11:38.102Z,1011.9
2018-06-11T05:12:38.110Z,1011.86
2018-06-11T05:13:38.099Z,1011.84
2018-06-11T05:14:38.113Z,1011.85
2018-06-11T05:15:38.106Z,1011.83
2018-06-11T05:16:38.079Z,1011.79
2018-06-11T05:17:38.128Z,1011.82
2018-06-11T05:18:38.112Z,1011.87
2018-06-11T05:19:38.116Z,1011.84
2018-06-11T05:20:38.200Z,1011.81
2018-06-11T05:21:38.161Z,1011.78
2018-06-11T05:22:38.180Z,1011.79
2018-06-11T05:23:38.115Z,1011.78
2018-06-11T05:24:38.105Z,1011.8
2018-06-11T05:25:38.087Z,1011.8
2018-06-11T05:26:38.108Z,1011.82
2018-06-11T05:27:38.173Z,1011.81
2018-06-11T05:28:38.696Z,1011.8
2018-06-11T05:29:38.092Z,1011.84
2018-06-11T05:30:38.240Z,1011.78
2018-06-11T05:31:38.191Z,1011.81
2018-06-11T05:32:38.076Z,1011.81
2018-06-11T05:33:38.357Z,1011.83
2018-06-11T05:34:38.184Z,1011.79
2018-06-11T05:35:38.107Z,1011.78
2018-06-11T05:36:38.124Z,1011.79
2018-06-11T05:37:38.140Z,1011.78
2018-06-11T05:38:38.131Z,1011.78
2018-06-11T05:39:38.133Z,1011.78
2018-06-11T05:40:38.252Z,1011.75
2018-06-11T05:41:38.289Z,1011.8
2018-06-11T05:42:38.206Z,1011.8
2018-06-11T05:43:38.157Z,1011.78
2018-06-11T05:44:38.197Z,1011.79
2018-06-11T05:45:38.111Z,1011.8
2018-06-11T05:46:38.162Z,1011.81
2018-06-11T05:47:38.119Z,1011.82
2018-06-11T05:48:38.088Z,1011.82
2018-06-11T05:49:38.124Z,1011.78
2018-06-11T05:50:38.096Z,1011.8
2018-06-11T05:51:38.120Z,1011.73
2018-06-11T05:52:38.085Z,1011.78
2018-06-11T05:53:38.091Z,1011.74
2018-06-11T05:54:38.074Z,1011.8
2018-06-11T05:55:38.075Z,1011.75
2018-06-11T05:56:38.113Z,1011.76
2018-06-11T05:57:38.125Z,1011.78
2018-06-11T05:58:38.119Z,1011.81
2018-06-11T05:59:38.100Z,1011.83
2018-06-11T06:00:38.148Z,1011.83
2018-06-11T06:01:38.190Z,1011.85
2018-06-11T06:02:38.128Z,1011.86
2018-06-11T06:03:38.101Z,1011.9
2018-06-11T06:04:38.298Z,1011.92
2018-06-11T06:05:38.072Z,1011.9
2018-06-11T06:06:38.175Z,1011.95
2018-06-11T06:07:38.133Z,1011.98
2018-06-11T06:08:38.160Z,1012.02
2018-06-11T06:09:38.201Z,1012.03
2018-06-11T06:10:38.148Z,1012.04
2018-06-11T06:11:38.187Z,1012.02
2018-06-11T06:12:38.077Z,1012
2018-06-11T06:13:38.125Z,1011.99
2018-06-11T06:14:38.245Z,1011.99
2018-06-11T06:15:38.102Z,1011.98
2018-06-11T06:16:38.108Z,1011.93
2018-06-11T06:17:38.160Z,1011.94
2018-06-11T06:18:38.101Z,1011.93
2018-06-11T06:19:38.117Z,1011.93
2018-06-11T06:20:38.066Z,1011.91
2018-06-11T06:21:38.074Z,1011.93
2018-06-11T06:22:38.076Z,1011.95
2018-06-11T06:23:38.064Z,1011.93
2018-06-11T06:24:38.070Z,1011.94
2018-06-11T06:25:38.073Z,1011.99
2018-06-11T06:26:38.149Z,1012.01
2018-06-11T06:27:38.090Z,1012.01
2018-06-11T06:28:38.081Z,1011.99
2018-06-11T06:29:38.089Z,1011.96
2018-06-11T06:30:38.136Z,1012
2018-06-11T06:31:38.102Z,1011.97
2018-06-11T06:32:38.462Z,1011.93
2018-06-11T06:33:38.109Z,1011.92
2018-06-11T06:34:38.252Z,1011.94
2018-06-11T06:35:38.074Z,1011.94
2018-06-11T06:36:38.063Z,1011.95
2018-06-11T06:37:38.069Z,1011.93
2018-06-11T06:38:38.075Z,1011.94
2018-06-11T06:39:38.189Z,1011.93
2018-06-11T06:40:38.064Z,1012.01
2018-06-11T06:41:38.069Z,1012.04
2018-06-11T06:42:38.096Z,1012.07
2018-06-11T06:43:48.121Z,1012.06
2018-06-11T06:44:38.083Z,1012.1
2018-06-11T06:45:38.068Z,1012.12
2018-06-11T06:46:38.171Z,1012.11
2018-06-11T06:47:38.196Z,1012.12
2018-06-11T06:48:38.121Z,1012.11
2018-06-11T06:49:38.099Z,1012.12
2018-06-11T06:50:38.092Z,1012.12
2018-06-11T06:51:38.141Z,1012.1
2018-06-11T06:52:38.248Z,1012.15
2018-06-11T06:53:38.216Z,1012.14
2018-06-11T06:54:38.074Z,1012.13
2018-06-11T06:55:38.156Z,1012.23
2018-06-11T06:56:38.058Z,1012.2
2018-06-11T06:57:38.103Z,1012.22
2018-06-11T06:58:38.092Z,1012.23
2018-06-11T06:59:38.077Z,1012.22
2018-06-11T07:00:38.125Z,1012.18
2018-06-11T07:01:38.090Z,1012.18
2018-06-11T07:02:38.088Z,1012.17
2018-06-11T07:03:38.083Z,1012.18
2018-06-11T07:04:38.208Z,1012.17
2018-06-11T07:05:38.097Z,1012.2
2018-06-11T07:06:38.057Z,1012.23
2018-06-11T07:07:38.078Z,1012.24
2018-06-11T07:08:38.061Z,1012.24
2018-06-11T07:09:38.165Z,1012.22
2018-06-11T07:10:38.079Z,1012.22
2018-06-11T07:11:38.068Z,1012.22
2018-06-11T07:12:38.061Z,1012.2
2018-06-11T07:13:38.128Z,1012.18
2018-06-11T07:14:38.370Z,1012.16
2018-06-11T07:15:38.074Z,1012.13
2018-06-11T07:16:38.073Z,1012.11
2018-06-11T07:17:38.064Z,1012.09
2018-06-11T07:18:38.078Z,1012.09
2018-06-11T07:19:38.097Z,1012.05
2018-06-11T07:20:38.061Z,1012.1
2018-06-11T07:21:38.053Z,1012.02
2018-06-11T07:22:38.195Z,1011.99
2018-06-11T07:23:38.072Z,1011.98
2018-06-11T07:24:38.065Z,1011.98
2018-06-11T07:25:38.057Z,1012
2018-06-11T07:26:38.090Z,1011.99
2018-06-11T07:27:38.160Z,1011.99
2018-06-11T07:28:38.081Z,1011.98
2018-06-11T07:29:38.090Z,1011.98
2018-06-11T07:30:38.073Z,1011.94
2018-06-11T07:31:38.208Z,1011.9
2018-06-11T07:32:38.105Z,1011.93
2018-06-11T07:33:38.119Z,1011.94
2018-06-11T07:34:38.044Z,1011.93
2018-06-11T07:35:38.086Z,1011.98
2018-06-11T07:36:38.086Z,1011.97
2018-06-11T07:37:38.065Z,1011.96
2018-06-11T07:38:38.066Z,1011.98
2018-06-11T07:39:38.097Z,1011.98
2018-06-11T07:40:38.072Z,1012
2018-06-11T07:41:38.054Z,1011.99
2018-06-11T07:42:38.053Z,1012
2018-06-11T07:43:38.060Z,1011.95
2018-06-11T07:44:38.068Z,1011.99
2018-06-11T07:45:38.089Z,1011.98
2018-06-11T07:46:38.083Z,1011.95
2018-06-11T07:47:38.092Z,1011.97
2018-06-11T07:48:38.058Z,1012
2018-06-11T07:49:38.074Z,1012
2018-06-11T07:50:38.099Z,1012.02
2018-06-11T07:51:38.100Z,1012
2018-06-11T07:52:38.240Z,1011.99
2018-06-11T07:53:38.092Z,1011.92
2018-06-11T07:54:38.091Z,1011.89
2018-06-11T07:55:38.052Z,1011.9
2018-06-11T07:56:38.114Z,1011.88
2018-06-11T07:57:38.132Z,1011.9
2018-06-11T07:58:38.133Z,1011.84
2018-06-11T07:59:38.136Z,1011.82
2018-06-11T08:00:38.062Z,1011.84
2018-06-11T08:01:38.078Z,1011.8
2018-06-11T08:02:38.047Z,1011.81
2018-06-11T08:03:38.162Z,1011.82
2018-06-11T08:04:38.068Z,1011.76
2018-06-11T08:05:38.090Z,1011.78
2018-06-11T08:06:38.069Z,1011.77
2018-06-11T08:07:38.046Z,1011.76
2018-06-11T08:08:38.103Z,1011.75
2018-06-11T08:09:38.121Z,1011.74
2018-06-11T08:10:38.075Z,1011.76
2018-06-11T08:11:38.106Z,1011.75
2018-06-11T08:12:38.059Z,1011.74
2018-06-11T08:13:38.312Z,1011.75
2018-06-11T08:14:38.496Z,1011.71
2018-06-11T08:15:38.059Z,1011.7
2018-06-11T08:16:38.064Z,1011.66
2018-06-11T08:17:38.020Z,1011.6
2018-06-11T08:18:38.064Z,1011.59
2018-06-11T08:19:38.069Z,1011.56
2018-06-11T08:20:38.053Z,1011.57
2018-06-11T08:21:38.044Z,1011.56
2018-06-11T08:22:38.060Z,1011.52
2018-06-11T08:23:38.038Z,1011.51
2018-06-11T08:24:38.034Z,1011.51
2018-06-11T08:25:38.071Z,1011.49
2018-06-11T08:26:38.047Z,1011.54
2018-06-11T08:27:38.066Z,1011.5
2018-06-11T08:28:38.047Z,1011.51
2018-06-11T08:29:38.015Z,1011.46
2018-06-11T08:30:38.080Z,1011.43
2018-06-11T08:31:38.027Z,1011.42
2018-06-11T08:32:38.051Z,1011.44
2018-06-11T08:33:38.091Z,1011.4
2018-06-11T08:34:38.034Z,1011.4
2018-06-11T08:35:38.175Z,1011.44
2018-06-11T08:36:38.036Z,1011.41
2018-06-11T08:37:38.100Z,1011.41
2018-06-11T08:38:38.154Z,1011.43
2018-06-11T08:39:38.094Z,1011.41
2018-06-11T08:40:38.059Z,1011.41
2018-06-11T08:41:38.207Z,1011.42
2018-06-11T08:42:38.069Z,1011.37
2018-06-11T08:43:38.285Z,1011.41
2018-06-11T08:44:38.054Z,1011.41
2018-06-11T08:45:38.028Z,1011.42
2018-06-11T08:46:38.030Z,1011.45
2018-06-11T08:47:38.022Z,1011.38
2018-06-11T08:48:38.015Z,1011.36
2018-06-11T08:49:38.020Z,1011.39
2018-06-11T08:50:38.018Z,1011.35
2018-06-11T08:51:38.027Z,1011.33
2018-06-11T08:52:38.030Z,1011.36
2018-06-11T08:53:38.028Z,1011.29
2018-06-11T08:54:38.047Z,1011.34
2018-06-11T08:55:38.026Z,1011.32
2018-06-11T08:56:38.033Z,1011.36
2018-06-11T08:57:38.047Z,1011.38
2018-06-11T08:58:38.028Z,1011.29
2018-06-11T08:59:38.070Z,1011.33
2018-06-11T09:00:38.034Z,1011.29
2018-06-11T09:01:38.280Z,1011.27
2018-06-11T09:02:38.044Z,1011.31
2018-06-11T09:03:38.039Z,1011.32
2018-06-11T09:04:38.047Z,1011.27
2018-06-11T09:05:38.054Z,1011.29
2018-06-11T09:06:38.081Z,1011.31
2018-06-11T09:07:38.051Z,1011.33
2018-06-11T09:08:38.177Z,1011.3
2018-06-11T09:09:38.045Z,1011.29
2018-06-11T09:10:38.019Z,1011.24
2018-06-11T09:11:38.056Z,1011.26
2018-06-11T09:12:38.192Z,1011.3
2018-06-11T09:13:38.061Z,1011.3
2018-06-11T09:14:38.012Z,1011.3
2018-06-11T09:15:38.011Z,1011.33
2018-06-11T09:16:38.027Z,1011.29
2018-06-11T09:17:38.045Z,1011.33
2018-06-11T09:18:38.013Z,1011.3
2018-06-11T09:19:38.067Z,1011.34
2018-06-11T09:20:38.117Z,1011.38
2018-06-11T09:21:38.098Z,1011.37
2018-06-11T09:22:38.078Z,1011.4
2018-06-11T09:23:38.035Z,1011.4
2018-06-11T09:24:38.199Z,1011.41
2018-06-11T09:25:38.025Z,1011.4
2018-06-11T09:26:38.013Z,1011.43
2018-06-11T09:27:38.043Z,1011.44
2018-06-11T09:28:38.031Z,1011.45
2018-06-11T09:29:38.056Z,1011.43
2018-06-11T09:30:38.225Z,1011.44
2018-06-11T09:31:38.050Z,1011.41
2018-06-11T09:32:38.054Z,1011.4
2018-06-11T09:33:38.080Z,1011.4
2018-06-11T09:34:38.224Z,1011.38
2018-06-11T09:35:38.032Z,1011.35
2018-06-11T09:36:38.023Z,1011.34
2018-06-11T09:37:38.067Z,1011.34
2018-06-11T09:38:38.038Z,1011.34
2018-06-11T09:39:38.183Z,1011.33
2018-06-11T09:40:38.014Z,1011.29
2018-06-11T09:41:38.068Z,1011.29
2018-06-11T09:42:38.027Z,1011.27
2018-06-11T09:43:38.187Z,1011.28
2018-06-11T09:44:38.025Z,1011.28
2018-06-11T09:45:38.011Z,1011.27
2018-06-11T09:46:38.066Z,1011.27
2018-06-11T09:47:38.063Z,1011.25
2018-06-11T09:48:38.017Z,1011.21
2018-06-11T09:49:38.023Z,1011.21
2018-06-11T09:50:38.014Z,1011.23
2018-06-11T09:51:38.094Z,1011.21
2018-06-11T09:52:38.009Z,1011.16
2018-06-11T09:53:38.030Z,1011.15
2018-06-11T09:54:38.165Z,1011.14
2018-06-11T09:55:38.086Z,1011.14
2018-06-11T09:56:38.037Z,1011.12
2018-06-11T09:57:38.041Z,1011.09
2018-06-11T09:58:38.013Z,1011.07
2018-06-11T09:59:38.027Z,1011.12
2018-06-11T10:00:38.005Z,1011.07
2018-06-11T10:01:38.005Z,1011
2018-06-11T10:02:38.056Z,1011.04
2018-06-11T10:03:38.180Z,1010.99
2018-06-11T10:04:38.035Z,1011
2018-06-11T10:05:38.011Z,1011.04
2018-06-11T10:06:38.030Z,1010.99
2018-06-11T10:07:38.059Z,1011.02
2018-06-11T10:08:38.019Z,1011.03
2018-06-11T10:09:38.024Z,1011.07
2018-06-11T10:10:38.009Z,1011.07
2018-06-11T10:11:37.997Z,1011.09
2018-06-11T10:12:38.015Z,1011.07
2018-06-11T10:13:38.100Z,1011.06
2018-06-11T10:14:38.016Z,1011.08
2018-06-11T10:15:38.014Z,1011.1
2018-06-11T10:16:38.024Z,1011.09
2018-06-11T10:17:38.046Z,1011.07
2018-06-11T10:18:38.030Z,1011.12
2018-06-11T10:19:38.033Z,1011.12
2018-06-11T10:20:38.120Z,1011.13
2018-06-11T10:21:38.037Z,1011.12
2018-06-11T10:22:38.204Z,1011.16
2018-06-11T10:23:38.008Z,1011.12
2018-06-11T10:24:38.005Z,1011.1
2018-06-11T10:25:38.030Z,1011.1
2018-06-11T10:26:38.359Z,1011.08
2018-06-11T10:27:38.057Z,1011.09
2018-06-11T10:28:38.102Z,1011.04
2018-06-11T10:29:38.012Z,1011.05
2018-06-11T10:30:38.017Z,1011.04
2018-06-11T10:31:38.004Z,1011.06
2018-06-11T10:32:38.000Z,1011.12
2018-06-11T10:33:38.072Z,1011.13
2018-06-11T10:34:38.009Z,1011.1
2018-06-11T10:35:38.053Z,1011.13
2018-06-11T10:36:38.042Z,1011.13
2018-06-11T10:37:38.002Z,1011.06
2018-06-11T10:38:38.053Z,1011.07
2018-06-11T10:39:38.001Z,1011.01
2018-06-11T10:40:38.032Z,1010.96
2018-06-11T10:41:38.100Z,1010.88
2018-06-11T10:42:38.001Z,1010.85
2018-06-11T10:43:38.101Z,1010.84
2018-06-11T10:44:38.117Z,1010.84
2018-06-11T10:45:38.013Z,1010.76
2018-06-11T10:46:38.043Z,1010.71
2018-06-11T10:47:38.067Z,1010.69
2018-06-11T10:48:38.044Z,1010.66
2018-06-11T10:49:38.123Z,1010.62
2018-06-11T10:50:38.025Z,1010.59
2018-06-11T10:51:38.014Z,1010.57
2018-06-11T10:52:37.993Z,1010.55
2018-06-11T10:53:38.244Z,1010.55
2018-06-11T10:54:38.081Z,1010.52
2018-06-11T10:55:38.044Z,1010.52
2018-06-11T10:56:38.017Z,1010.47
2018-06-11T10:57:37.990Z,1010.41
2018-06-11T10:58:38.180Z,1010.38
2018-06-11T10:59:38.021Z,1010.36
2018-06-11T11:00:37.994Z,1010.33
2018-06-11T11:01:38.004Z,1010.3
2018-06-11T11:02:38.007Z,1010.27
2018-06-11T11:03:38.047Z,1010.28
2018-06-11T11:04:38.148Z,1010.25
2018-06-11T11:05:38.272Z,1010.25
2018-06-11T11:06:38.152Z,1010.27
2018-06-11T11:07:38.012Z,1010.23
2018-06-11T11:08:37.976Z,1010.24
2018-06-11T11:09:38.137Z,1010.23
2018-06-11T11:10:37.979Z,1010.24
2018-06-11T11:11:37.983Z,1010.22
2018-06-11T11:12:38.169Z,1010.21
2018-06-11T11:13:37.997Z,1010.2
2018-06-11T11:14:37.991Z,1010.17
2018-06-11T11:15:37.999Z,1010.21
2018-06-11T11:16:37.996Z,1010.21
2018-06-11T11:17:37.996Z,1010.16
2018-06-11T11:18:37.993Z,1010.17
2018-06-11T11:19:37.993Z,1010.14
2018-06-11T11:20:37.980Z,1010.17
2018-06-11T11:21:37.989Z,1010.14
2018-06-11T11:22:37.980Z,1010.09
2018-06-11T11:23:38.009Z,1010.1
2018-06-11T11:24:37.986Z,1010.1
2018-06-11T11:25:37.990Z,1010.08
2018-06-11T11:26:37.984Z,1010.09
2018-06-11T11:27:37.995Z,1010.08
2018-06-11T11:28:37.993Z,1010.09
2018-06-11T11:29:38.038Z,1010.05
2018-06-11T11:30:38.175Z,1010.03
2018-06-11T11:31:38.150Z,1010.04
2018-06-11T11:32:38.150Z,1010.07
2018-06-11T11:33:38.008Z,1010.09
2018-06-11T11:34:38.167Z,1010.08
2018-06-11T11:35:37.998Z,1010.13
2018-06-11T11:36:38.150Z,1010.07
2018-06-11T11:37:37.973Z,1010.09
2018-06-11T11:38:38.002Z,1010.06
2018-06-11T11:39:38.010Z,1010.09
2018-06-11T11:40:37.972Z,1010.11
2018-06-11T11:41:37.994Z,1010.07
2018-06-11T11:42:38.026Z,1010.06
2018-06-11T11:43:38.013Z,1010.03
2018-06-11T11:44:37.996Z,1010.05
2018-06-11T11:45:38.037Z,1010.03
2018-06-11T11:46:37.996Z,1010.03
2018-06-11T11:47:38.027Z,1010.03
2018-06-11T11:48:38.005Z,1010.05
2018-06-11T11:49:38.022Z,1010.07
2018-06-11T11:50:38.001Z,1010.09
2018-06-11T11:51:38.049Z,1010.09
2018-06-11T11:52:38.018Z,1010.08
2018-06-11T11:53:38.049Z,1010.08
2018-06-11T11:54:37.972Z,1010.11
2018-06-11T11:55:37.972Z,1010.06
2018-06-11T11:56:38.021Z,1010.07
2018-06-11T11:57:38.016Z,1010.07
2018-06-11T11:58:37.997Z,1010.06
2018-06-11T11:59:38.031Z,1010.08
2018-06-11T12:00:38.388Z,1010.07
2018-06-11T12:01:38.054Z,1010.06
2018-06-11T12:02:38.004Z,1010.1
2018-06-11T12:03:37.997Z,1010.09
2018-06-11T12:04:37.993Z,1010.08
2018-06-11T12:05:38.052Z,1010.12
2018-06-11T12:06:37.993Z,1010.09
2018-06-11T12:07:38.084Z,1010.15
2018-06-11T12:08:37.999Z,1010.16
2018-06-11T12:09:38.014Z,1010.16